sensor_id;sensor_type;location;lat;lon;timestamp;pressure;altitude;pressure_sealevel;temperature;humidity
85094;BME280;75432;49.056;12.004;2024-03-07T00:01:39;97022.09;;;4.61;70.24
85094;BME280;75432;49.056;12.004;2024-03-07T00:04:06;96908.94;;;3.81;70.23
85094;BME280;75432;49.056;12.004;2024-03-07T00:06:33;97028.81;;;4.57;70.41
85094;BME280;75432;49.056;12.004;2024-03-07T00:08:59;97017.78;;;4.47;70.03
85094;BME280;75432;49.056;12.004;2024-03-07T00:11:26;97076.19;;;4.79;70.33
85094;BME280;75432;49.056;12.004;2024-03-07T00:13:52;97059.06;;;4.82;70.14
85094;BME280;75432;49.056;12.004;2024-03-07T00:16:19;96955.28;;;4.11;70.05
85094;BME280;75432;49.056;12.004;2024-03-07T00:18:46;96992.03;;;4.27;70.33
85094;BME280;75432;49.056;12.004;2024-03-07T00:21:13;96973.66;;;4.19;70.12
85094;BME280;75432;49.056;12.004;2024-03-07T00:23:40;97041.88;;;4.65;70.01
85094;BME280;75432;49.056;12.004;2024-03-07T00:26:07;96983.25;;;4.27;70.08
85094;BME280;75432;49.056;12.004;2024-03-07T00:28:34;97008.13;;;4.32;70.14
85094;BME280;75432;49.056;12.004;2024-03-07T00:31:05;97017.94;;;4.39;70.04
85094;BME280;75432;49.056;12.004;2024-03-07T00:33:33;97068.41;;;4.65;70.18
85094;BME280;75432;49.056;12.004;2024-03-07T00:36:20;96983.84;;;4.16;70.09
85094;BME280;75432;49.056;12.004;2024-03-07T00:38:47;96919.91;;;3.71;70.09
85094;BME280;75432;49.056;12.004;2024-03-07T00:41:15;96897.47;;;3.61;70.08
85094;BME280;75432;49.056;12.004;2024-03-07T00:43:43;96959.09;;;3.89;70.07
85094;BME280;75432;49.056;12.004;2024-03-07T00:46:10;96968.47;;;3.92;70.45
85094;BME280;75432;49.056;12.004;2024-03-07T00:48:37;96961.94;;;3.94;70.42
85094;BME280;75432;49.056;12.004;2024-03-07T00:51:04;97022.78;;;4.22;70.35
85094;BME280;75432;49.056;12.004;2024-03-07T00:53:31;96958.69;;;3.92;70.36
85094;BME280;75432;49.056;12.004;2024-03-07T00:55:58;97050.00;;;4.44;70.33
85094;BME280;75432;49.056;12.004;2024-03-07T00:58:25;97050.59;;;4.39;70.28
85094;BME280;75432;49.056;12.004;2024-03-07T01:00:51;96934.75;;;3.66;70.23
85094;BME280;75432;49.056;12.004;2024-03-07T01:03:21;96989.88;;;3.97;70.44
85094;BME280;75432;49.056;12.004;2024-03-07T01:05:48;96982.53;;;3.92;70.28
85094;BME280;75432;49.056;12.004;2024-03-07T01:08:14;96881.38;;;3.21;70.28
85094;BME280;75432;49.056;12.004;2024-03-07T01:10:41;96946.75;;;3.62;70.70
85094;BME280;75432;49.056;12.004;2024-03-07T01:13:09;96981.03;;;3.83;70.43
85094;BME280;75432;49.056;12.004;2024-03-07T01:15:45;96977.97;;;3.79;70.55
85094;BME280;75432;49.056;12.004;2024-03-07T01:18:12;96965.47;;;3.67;70.26
85094;BME280;75432;49.056;12.004;2024-03-07T01:20:39;96872.16;;;3.04;70.02
85094;BME280;75432;49.056;12.004;2024-03-07T01:23:06;97021.03;;;3.95;70.42
85094;BME280;75432;49.056;12.004;2024-03-07T01:25:34;96837.13;;;2.68;70.22
85094;BME280;75432;49.056;12.004;2024-03-07T01:28:01;96927.84;;;3.30;70.51
85094;BME280;75432;49.056;12.004;2024-03-07T01:30:27;96889.59;;;2.99;70.36
85094;BME280;75432;49.056;12.004;2024-03-07T01:32:57;96994.59;;;3.67;70.75
85094;BME280;75432;49.056;12.004;2024-03-07T01:35:23;96978.03;;;3.52;70.52
85094;BME280;75432;49.056;12.004;2024-03-07T01:37:50;97039.53;;;3.88;70.68
85094;BME280;75432;49.056;12.004;2024-03-07T01:40:17;97006.38;;;3.58;70.73
85094;BME280;75432;49.056;12.004;2024-03-07T01:42:47;97024.97;;;3.71;70.78
85094;BME280;75432;49.056;12.004;2024-03-07T01:45:14;97051.94;;;3.81;70.69
85094;BME280;75432;49.056;12.004;2024-03-07T01:47:40;96903.75;;;2.84;71.28
85094;BME280;75432;49.056;12.004;2024-03-07T01:50:08;97032.91;;;3.71;71.33
85094;BME280;75432;49.056;12.004;2024-03-07T01:52:36;97023.34;;;3.70;71.34
85094;BME280;75432;49.056;12.004;2024-03-07T01:55:03;96847.25;;;2.58;71.16
85094;BME280;75432;49.056;12.004;2024-03-07T01:57:29;96882.94;;;2.75;71.49
85094;BME280;75432;49.056;12.004;2024-03-07T01:59:56;96807.16;;;2.26;71.24
85094;BME280;75432;49.056;12.004;2024-03-07T02:02:23;96858.41;;;2.60;71.55
85094;BME280;75432;49.056;12.004;2024-03-07T02:04:50;96897.78;;;2.76;71.53
85094;BME280;75432;49.056;12.004;2024-03-07T02:07:16;96960.28;;;3.11;71.80
85094;BME280;75432;49.056;12.004;2024-03-07T02:09:43;96972.56;;;3.25;71.89
85094;BME280;75432;49.056;12.004;2024-03-07T02:12:09;97003.19;;;3.34;71.77
85094;BME280;75432;49.056;12.004;2024-03-07T02:14:36;96932.03;;;2.91;71.98
85094;BME280;75432;49.056;12.004;2024-03-07T02:17:03;96882.84;;;2.62;72.17
85094;BME280;75432;49.056;12.004;2024-03-07T02:19:30;96997.78;;;3.21;72.38
85094;BME280;75432;49.056;12.004;2024-03-07T02:21:58;96926.28;;;2.80;72.40
85094;BME280;75432;49.056;12.004;2024-03-07T02:24:26;96912.66;;;2.77;72.02
85094;BME280;75432;49.056;12.004;2024-03-07T02:26:52;96866.25;;;2.47;72.23
85094;BME280;75432;49.056;12.004;2024-03-07T02:29:19;96913.66;;;2.76;72.40
85094;BME280;75432;49.056;12.004;2024-03-07T02:31:46;96918.09;;;2.75;72.48
85094;BME280;75432;49.056;12.004;2024-03-07T02:34:12;96776.16;;;1.86;72.29
85094;BME280;75432;49.056;12.004;2024-03-07T02:36:39;96755.75;;;1.73;72.53
85094;BME280;75432;49.056;12.004;2024-03-07T02:39:05;96949.13;;;2.88;72.88
85094;BME280;75432;49.056;12.004;2024-03-07T02:41:32;96949.13;;;2.88;72.41
85094;BME280;75432;49.056;12.004;2024-03-07T02:44:00;96957.53;;;2.98;72.91
85094;BME280;75432;49.056;12.004;2024-03-07T02:46:29;96975.50;;;3.09;72.91
85094;BME280;75432;49.056;12.004;2024-03-07T02:48:59;96920.50;;;2.70;73.08
85094;BME280;75432;49.056;12.004;2024-03-07T02:51:26;96863.50;;;2.33;72.76
85094;BME280;75432;49.056;12.004;2024-03-07T02:53:53;97005.28;;;3.18;73.12
85094;BME280;75432;49.056;12.004;2024-03-07T02:56:19;96927.03;;;2.74;72.97
85094;BME280;75432;49.056;12.004;2024-03-07T02:58:49;96992.06;;;3.18;73.14
85094;BME280;75432;49.056;12.004;2024-03-07T03:01:15;96802.63;;;1.92;72.87
85094;BME280;75432;49.056;12.004;2024-03-07T03:03:42;96870.22;;;2.36;72.96
85094;BME280;75432;49.056;12.004;2024-03-07T03:06:09;96899.66;;;2.54;72.86
85094;BME280;75432;49.056;12.004;2024-03-07T03:08:37;96988.25;;;2.99;73.18
85094;BME280;75432;49.056;12.004;2024-03-07T03:11:04;96927.91;;;2.54;73.07
85094;BME280;75432;49.056;12.004;2024-03-07T03:13:30;96995.66;;;3.10;73.28
85094;BME280;75432;49.056;12.004;2024-03-07T03:15:58;96925.25;;;2.54;73.13
85094;BME280;75432;49.056;12.004;2024-03-07T03:18:24;96994.75;;;2.97;73.41
85094;BME280;75432;49.056;12.004;2024-03-07T03:20:51;96838.19;;;1.97;73.26
85094;BME280;75432;49.056;12.004;2024-03-07T03:23:19;96936.09;;;2.59;73.41
85094;BME280;75432;49.056;12.004;2024-03-07T03:25:47;96956.63;;;2.63;73.56
85094;BME280;75432;49.056;12.004;2024-03-07T03:28:17;96997.72;;;2.87;73.43
85094;BME280;75432;49.056;12.004;2024-03-07T03:30:47;96934.31;;;2.45;73.59
85094;BME280;75432;49.056;12.004;2024-03-07T03:33:14;96996.72;;;2.88;73.49
85094;BME280;75432;49.056;12.004;2024-03-07T03:35:41;96936.06;;;2.37;73.75
85094;BME280;75432;49.056;12.004;2024-03-07T03:38:08;96855.47;;;1.99;73.71
85094;BME280;75432;49.056;12.004;2024-03-07T03:40:36;97001.19;;;2.87;73.73
85094;BME280;75432;49.056;12.004;2024-03-07T03:43:02;96833.72;;;1.76;73.66
85094;BME280;75432;49.056;12.004;2024-03-07T03:45:29;97005.22;;;2.83;73.65
85094;BME280;75432;49.056;12.004;2024-03-07T03:47:58;96897.91;;;2.19;73.05
85094;BME280;75432;49.056;12.004;2024-03-07T03:50:25;96874.81;;;2.06;73.95
85094;BME280;75432;49.056;12.004;2024-03-07T03:52:52;96937.72;;;2.38;73.78
85094;BME280;75432;49.056;12.004;2024-03-07T03:55:19;96941.63;;;2.43;73.78
85094;BME280;75432;49.056;12.004;2024-03-07T03:57:47;97024.78;;;2.89;73.79
85094;BME280;75432;49.056;12.004;2024-03-07T04:00:17;96954.00;;;2.63;73.74
85094;BME280;75432;49.056;12.004;2024-03-07T04:02:46;97029.25;;;2.88;74.18
85094;BME280;75432;49.056;12.004;2024-03-07T04:05:18;96861.38;;;2.01;73.55
85094;BME280;75432;49.056;12.004;2024-03-07T04:07:46;97008.09;;;2.88;73.76
85094;BME280;75432;49.056;12.004;2024-03-07T04:10:16;96931.66;;;2.45;73.54
85094;BME280;75432;49.056;12.004;2024-03-07T04:12:43;96954.50;;;2.52;73.47
85094;BME280;75432;49.056;12.004;2024-03-07T04:15:13;96884.13;;;2.02;73.64
85094;BME280;75432;49.056;12.004;2024-03-07T04:17:45;96968.91;;;2.50;74.02
85094;BME280;75432;49.056;12.004;2024-03-07T04:20:13;97002.91;;;2.74;74.13
85094;BME280;75432;49.056;12.004;2024-03-07T04:22:40;96971.13;;;2.46;74.39
85094;BME280;75432;49.056;12.004;2024-03-07T04:25:07;97007.53;;;2.72;74.31
85094;BME280;75432;49.056;12.004;2024-03-07T04:27:34;96999.78;;;2.70;74.31
85094;BME280;75432;49.056;12.004;2024-03-07T04:30:04;96909.03;;;2.14;74.14
85094;BME280;75432;49.056;12.004;2024-03-07T04:32:31;96900.66;;;2.11;74.08
85094;BME280;75432;49.056;12.004;2024-03-07T04:34:57;96906.78;;;2.11;74.20
85094;BME280;75432;49.056;12.004;2024-03-07T04:37:24;96843.63;;;1.74;74.27
85094;BME280;75432;49.056;12.004;2024-03-07T04:39:50;96973.94;;;2.45;74.41
85094;BME280;75432;49.056;12.004;2024-03-07T04:42:17;96941.31;;;2.31;74.06
85094;BME280;75432;49.056;12.004;2024-03-07T04:44:44;96921.25;;;2.15;73.93
85094;BME280;75432;49.056;12.004;2024-03-07T04:47:11;96925.50;;;2.16;73.82
85094;BME280;75432;49.056;12.004;2024-03-07T04:49:38;96924.81;;;2.08;74.10
85094;BME280;75432;49.056;12.004;2024-03-07T04:52:07;97018.28;;;2.49;74.37
85094;BME280;75432;49.056;12.004;2024-03-07T04:54:33;96881.97;;;1.70;74.40
85094;BME280;75432;49.056;12.004;2024-03-07T04:57:01;96912.03;;;1.90;74.42
85094;BME280;75432;49.056;12.004;2024-03-07T04:59:27;96956.94;;;2.11;74.47
85094;BME280;75432;49.056;12.004;2024-03-07T05:01:54;96946.75;;;2.08;74.52
85094;BME280;75432;49.056;12.004;2024-03-07T05:04:21;96993.97;;;2.18;74.45
85094;BME280;75432;49.056;12.004;2024-03-07T05:06:50;96964.97;;;2.03;74.80
85094;BME280;75432;49.056;12.004;2024-03-07T05:09:16;96887.81;;;1.65;74.88
85094;BME280;75432;49.056;12.004;2024-03-07T05:11:49;96874.66;;;1.51;74.92
85094;BME280;75432;49.056;12.004;2024-03-07T05:14:19;96852.28;;;1.32;75.27
85094;BME280;75432;49.056;12.004;2024-03-07T05:16:47;96793.34;;;1.04;74.98
85094;BME280;75432;49.056;12.004;2024-03-07T05:19:34;97000.69;;;2.35;75.03
85094;BME280;75432;49.056;12.004;2024-03-07T05:22:02;96998.84;;;2.35;75.02
85094;BME280;75432;49.056;12.004;2024-03-07T05:24:40;96906.78;;;1.75;75.34
85094;BME280;75432;49.056;12.004;2024-03-07T05:27:08;96998.75;;;2.29;74.89
85094;BME280;75432;49.056;12.004;2024-03-07T05:29:38;96893.44;;;1.62;74.76
85094;BME280;75432;49.056;12.004;2024-03-07T05:34:48;97016.09;;;2.17;75.20
85094;BME280;75432;49.056;12.004;2024-03-07T05:37:14;96866.75;;;1.21;75.23
85094;BME280;75432;49.056;12.004;2024-03-07T05:39:41;96968.66;;;1.87;75.11
85094;BME280;75432;49.056;12.004;2024-03-07T05:42:08;96895.84;;;1.42;75.01
85094;BME280;75432;49.056;12.004;2024-03-07T05:44:34;96944.94;;;1.73;75.22
85094;BME280;75432;49.056;12.004;2024-03-07T05:47:01;96934.75;;;1.70;75.37
85094;BME280;75432;49.056;12.004;2024-03-07T05:49:28;96987.28;;;2.01;75.41
85094;BME280;75432;49.056;12.004;2024-03-07T05:51:57;97005.09;;;2.13;75.55
85094;BME280;75432;49.056;12.004;2024-03-07T05:54:24;96856.78;;;1.17;75.46
85094;BME280;75432;49.056;12.004;2024-03-07T05:56:50;96981.91;;;1.94;75.60
85094;BME280;75432;49.056;12.004;2024-03-07T05:59:17;96956.00;;;1.83;75.28
85094;BME280;75432;49.056;12.004;2024-03-07T06:01:44;97010.72;;;2.25;75.47
85094;BME280;75432;49.056;12.004;2024-03-07T06:04:10;96938.34;;;1.83;75.25
85094;BME280;75432;49.056;12.004;2024-03-07T06:06:37;96811.97;;;1.02;75.10
85094;BME280;75432;49.056;12.004;2024-03-07T06:09:06;96960.41;;;1.97;74.82
85094;BME280;75432;49.056;12.004;2024-03-07T06:11:37;96829.59;;;1.16;74.83
85094;BME280;75432;49.056;12.004;2024-03-07T06:14:06;96936.25;;;1.79;75.24
85094;BME280;75432;49.056;12.004;2024-03-07T06:16:37;97018.06;;;2.29;75.62
85094;BME280;75432;49.056;12.004;2024-03-07T06:19:05;96913.16;;;1.66;75.38
85094;BME280;75432;49.056;12.004;2024-03-07T06:21:38;97012.41;;;2.32;75.50
85094;BME280;75432;49.056;12.004;2024-03-07T06:24:09;97002.34;;;2.21;75.26
85094;BME280;75432;49.056;12.004;2024-03-07T06:26:38;96959.38;;;2.13;75.18
85094;BME280;75432;49.056;12.004;2024-03-07T06:29:16;96918.59;;;1.79;75.20
85094;BME280;75432;49.056;12.004;2024-03-07T06:31:44;97012.94;;;2.43;75.22
85094;BME280;75432;49.056;12.004;2024-03-07T06:34:13;96899.41;;;1.71;74.97
85094;BME280;75432;49.056;12.004;2024-03-07T06:36:40;96974.50;;;2.19;74.95
85094;BME280;75432;49.056;12.004;2024-03-07T06:39:07;96799.97;;;1.14;74.81
85094;BME280;75432;49.056;12.004;2024-03-07T06:41:34;96941.31;;;1.95;74.88
85094;BME280;75432;49.056;12.004;2024-03-07T06:44:01;96933.41;;;1.95;75.02
85094;BME280;75432;49.056;12.004;2024-03-07T06:46:29;96872.25;;;1.56;75.15
85094;BME280;75432;49.056;12.004;2024-03-07T06:48:56;96884.25;;;1.73;75.30
85094;BME280;75432;49.056;12.004;2024-03-07T06:51:23;96886.22;;;1.71;75.27
85094;BME280;75432;49.056;12.004;2024-03-07T06:53:51;97043.66;;;2.65;75.25
85094;BME280;75432;49.056;12.004;2024-03-07T06:56:18;96991.81;;;2.43;75.07
85094;BME280;75432;49.056;12.004;2024-03-07T06:58:44;96888.03;;;1.85;74.85
85094;BME280;75432;49.056;12.004;2024-03-07T07:01:15;96941.72;;;2.13;75.23
85094;BME280;75432;49.056;12.004;2024-03-07T07:03:43;97021.19;;;2.75;74.75
85094;BME280;75432;49.056;12.004;2024-03-07T07:06:10;96760.53;;;1.06;75.09
85094;BME280;75432;49.056;12.004;2024-03-07T07:08:37;96990.66;;;2.52;75.11
85094;BME280;75432;49.056;12.004;2024-03-07T07:11:05;97038.13;;;2.81;75.59
85094;BME280;75432;49.056;12.004;2024-03-07T07:13:32;96961.22;;;2.33;75.28
85094;BME280;75432;49.056;12.004;2024-03-07T07:15:59;96960.47;;;2.39;75.53
85094;BME280;75432;49.056;12.004;2024-03-07T07:18:26;97029.69;;;2.92;75.79
85094;BME280;75432;49.056;12.004;2024-03-07T07:20:52;96864.16;;;1.93;75.76
85094;BME280;75432;49.056;12.004;2024-03-07T07:23:19;97030.19;;;3.02;75.90
85094;BME280;75432;49.056;12.004;2024-03-07T07:25:46;96963.38;;;2.66;75.47
85094;BME280;75432;49.056;12.004;2024-03-07T07:28:13;96885.16;;;2.22;75.44
85094;BME280;75432;49.056;12.004;2024-03-07T07:30:40;96714.34;;;1.10;75.56
85094;BME280;75432;49.056;12.004;2024-03-07T07:33:10;97032.69;;;3.10;75.75
85094;BME280;75432;49.056;12.004;2024-03-07T07:35:37;96987.78;;;2.89;75.91
85094;BME280;75432;49.056;12.004;2024-03-07T07:38:04;96975.56;;;2.88;75.94
85094;BME280;75432;49.056;12.004;2024-03-07T07:40:33;96921.53;;;2.48;76.26
85094;BME280;75432;49.056;12.004;2024-03-07T07:43:00;96914.03;;;2.52;76.60
85094;BME280;75432;49.056;12.004;2024-03-07T07:45:27;96992.97;;;3.04;76.32
85094;BME280;75432;49.056;12.004;2024-03-07T07:47:54;96910.44;;;2.59;76.80
85094;BME280;75432;49.056;12.004;2024-03-07T07:50:23;96934.88;;;2.61;76.89
85094;BME280;75432;49.056;12.004;2024-03-07T07:52:54;97010.88;;;3.29;76.92
85094;BME280;75432;49.056;12.004;2024-03-07T07:55:24;97015.16;;;3.30;77.32
85094;BME280;75432;49.056;12.004;2024-03-07T07:57:53;97009.03;;;3.30;77.58
85094;BME280;75432;49.056;12.004;2024-03-07T08:00:22;96977.28;;;3.02;77.60
85094;BME280;75432;49.056;12.004;2024-03-07T08:02:54;97018.22;;;3.34;78.10
85094;BME280;75432;49.056;12.004;2024-03-07T08:05:26;96936.91;;;2.87;77.93
85094;BME280;75432;49.056;12.004;2024-03-07T08:07:55;97016.00;;;3.38;78.20
85094;BME280;75432;49.056;12.004;2024-03-07T08:10:25;96946.72;;;2.93;78.53
85094;BME280;75432;49.056;12.004;2024-03-07T08:12:52;97022.72;;;3.40;78.24
85094;BME280;75432;49.056;12.004;2024-03-07T08:15:19;96726.22;;;1.63;78.20
85094;BME280;75432;49.056;12.004;2024-03-07T08:17:47;97015.25;;;3.44;78.42
85094;BME280;75432;49.056;12.004;2024-03-07T08:20:15;96931.19;;;2.83;78.54
85094;BME280;75432;49.056;12.004;2024-03-07T08:22:42;97019.50;;;3.45;78.63
85094;BME280;75432;49.056;12.004;2024-03-07T08:25:15;97020.34;;;3.45;79.03
85094;BME280;75432;49.056;12.004;2024-03-07T08:27:43;96807.81;;;2.07;78.93
85094;BME280;75432;49.056;12.004;2024-03-07T08:30:10;97005.59;;;3.36;79.18
85094;BME280;75432;49.056;12.004;2024-03-07T08:32:44;96976.19;;;3.18;79.25
85094;BME280;75432;49.056;12.004;2024-03-07T08:35:11;96925.94;;;2.90;79.50
85094;BME280;75432;49.056;12.004;2024-03-07T08:37:39;97014.47;;;3.50;nan
85094;BME280;75432;49.056;12.004;2024-03-07T08:40:07;97010.44;;;3.54;79.61
85094;BME280;75432;49.056;12.004;2024-03-07T08:42:42;96885.97;;;2.72;79.78
85094;BME280;75432;49.056;12.004;2024-03-07T08:45:09;96990.38;;;3.38;79.57
85094;BME280;75432;49.056;12.004;2024-03-07T08:47:37;96900.28;;;2.84;79.71
85094;BME280;75432;49.056;12.004;2024-03-07T08:50:05;96923.59;;;3.02;79.59
85094;BME280;75432;49.056;12.004;2024-03-07T08:52:35;97005.38;;;3.59;79.79
85094;BME280;75432;49.056;12.004;2024-03-07T08:55:07;97005.66;;;3.70;79.72
85094;BME280;75432;49.056;12.004;2024-03-07T08:57:38;96699.13;;;1.76;79.47
85094;BME280;75432;49.056;12.004;2024-03-07T09:00:06;97009.53;;;3.74;79.43
85094;BME280;75432;49.056;12.004;2024-03-07T09:02:50;96994.84;;;3.72;79.56
85094;BME280;75432;49.056;12.004;2024-03-07T09:05:20;96972.25;;;3.69;79.75
85094;BME280;75432;49.056;12.004;2024-03-07T09:07:49;97001.66;;;3.94;79.99
85094;BME280;75432;49.056;12.004;2024-03-07T09:10:16;96980.41;;;3.74;79.80
85094;BME280;75432;49.056;12.004;2024-03-07T09:12:44;96941.63;;;3.60;79.40
85094;BME280;75432;49.056;12.004;2024-03-07T09:15:11;97023.94;;;4.06;79.51
85094;BME280;75432;49.056;12.004;2024-03-07T09:17:39;97008.03;;;4.00;79.64
85094;BME280;75432;49.056;12.004;2024-03-07T09:20:06;96985.16;;;3.92;79.76
85094;BME280;75432;49.056;12.004;2024-03-07T09:22:36;96759.47;;;2.62;79.69
85094;BME280;75432;49.056;12.004;2024-03-07T09:25:06;96900.28;;;3.53;79.33
85094;BME280;75432;49.056;12.004;2024-03-07T09:27:33;96847.41;;;3.18;79.27
85094;BME280;75432;49.056;12.004;2024-03-07T09:30:00;96682.81;;;2.21;78.79
85094;BME280;75432;49.056;12.004;2024-03-07T09:32:27;96978.28;;;4.04;78.81
85094;BME280;75432;49.056;12.004;2024-03-07T09:34:59;97005.69;;;4.24;78.44
85094;BME280;75432;49.056;12.004;2024-03-07T09:37:27;96683.88;;;2.27;78.10
85094;BME280;75432;49.056;12.004;2024-03-07T09:39:53;96930.16;;;3.94;77.63
85094;BME280;75432;49.056;12.004;2024-03-07T09:42:20;96901.19;;;3.73;77.31
85094;BME280;75432;49.056;12.004;2024-03-07T09:44:48;96855.06;;;3.48;77.35
85094;BME280;75432;49.056;12.004;2024-03-07T09:47:20;96955.69;;;4.08;77.27
85094;BME280;75432;49.056;12.004;2024-03-07T09:49:47;96915.91;;;3.95;77.12
85094;BME280;75432;49.056;12.004;2024-03-07T09:52:14;96890.59;;;3.73;76.79
85094;BME280;75432;49.056;12.004;2024-03-07T09:54:41;96993.91;;;4.47;76.58
85094;BME280;75432;49.056;12.004;2024-03-07T09:57:09;96809.63;;;3.38;76.45
85094;BME280;75432;49.056;12.004;2024-03-07T09:59:38;96973.72;;;4.46;76.34
85094;BME280;75432;49.056;12.004;2024-03-07T10:02:06;96740.28;;;2.95;75.84
85094;BME280;75432;49.056;12.004;2024-03-07T10:04:38;96780.47;;;3.18;74.51
85094;BME280;75432;49.056;12.004;2024-03-07T10:07:07;96898.44;;;4.14;74.91
85094;BME280;75432;49.056;12.004;2024-03-07T10:09:39;96884.59;;;4.12;75.06
85094;BME280;75432;49.056;12.004;2024-03-07T10:12:07;96870.28;;;4.06;74.27
85094;BME280;75432;49.056;12.004;2024-03-07T10:14:36;96916.00;;;4.41;74.15
85094;BME280;75432;49.056;12.004;2024-03-07T10:17:05;96994.22;;;4.98;73.26
85094;BME280;75432;49.056;12.004;2024-03-07T10:19:32;96879.72;;;4.28;72.88
85094;BME280;75432;49.056;12.004;2024-03-07T10:21:59;96971.94;;;4.92;72.65
85094;BME280;75432;49.056;12.004;2024-03-07T10:24:28;96860.16;;;4.23;72.73
85094;BME280;75432;49.056;12.004;2024-03-07T10:26:54;96936.22;;;4.68;71.90
85094;BME280;75432;49.056;12.004;2024-03-07T10:29:24;96889.53;;;4.48;71.85
85094;BME280;75432;49.056;12.004;2024-03-07T10:31:51;96917.47;;;4.83;71.41
85094;BME280;75432;49.056;12.004;2024-03-07T10:34:33;96870.75;;;4.56;70.55
85094;BME280;75432;49.056;12.004;2024-03-07T10:37:00;96921.94;;;5.02;70.08
85094;BME280;75432;49.056;12.004;2024-03-07T10:39:30;96832.22;;;4.60;69.63
85094;BME280;75432;49.056;12.004;2024-03-07T10:42:00;96758.41;;;4.50;68.43
85094;BME280;75432;49.056;12.004;2024-03-07T10:44:33;96938.75;;;5.87;68.20
85094;BME280;75432;49.056;12.004;2024-03-07T10:47:09;96881.59;;;5.58;67.04
85094;BME280;75432;49.056;12.004;2024-03-07T10:52:39;96867.84;;;5.74;65.46
85094;BME280;75432;49.056;12.004;2024-03-07T10:55:14;96940.13;;;6.34;66.23
85094;BME280;75432;49.056;12.004;2024-03-07T10:57:52;96963.06;;;6.66;65.15
85094;BME280;75432;49.056;12.004;2024-03-07T11:00:25;96811.47;;;5.72;64.48
85094;BME280;75432;49.056;12.004;2024-03-07T11:03:10;96964.00;;;6.78;64.99
85094;BME280;75432;49.056;12.004;2024-03-07T11:05:38;96866.19;;;6.24;64.99
85094;BME280;75432;49.056;12.004;2024-03-07T11:08:07;96859.97;;;6.30;65.28
85094;BME280;75432;49.056;12.004;2024-03-07T11:10:39;96902.63;;;6.73;64.38
85094;BME280;75432;49.056;12.004;2024-03-07T11:13:08;96931.94;;;6.91;63.88
85094;BME280;75432;49.056;12.004;2024-03-07T11:15:42;96798.91;;;6.23;61.41
85094;BME280;75432;49.056;12.004;2024-03-07T11:18:09;96893.84;;;6.97;62.25
85094;BME280;75432;49.056;12.004;2024-03-07T11:20:40;96963.28;;;7.39;62.44
85094;BME280;75432;49.056;12.004;2024-03-07T11:26:05;96945.84;;;7.43;61.75
85094;BME280;75432;49.056;12.004;2024-03-07T11:28:37;96954.84;;;7.42;62.57
85094;BME280;75432;49.056;12.004;2024-03-07T11:31:34;96951.06;;;7.31;60.62
85094;BME280;75432;49.056;12.004;2024-03-07T11:34:16;96893.69;;;6.92;60.19
85094;BME280;75432;49.056;12.004;2024-03-07T11:36:47;96808.84;;;6.35;62.19
85094;BME280;75432;49.056;12.004;2024-03-07T11:39:44;96941.06;;;7.27;60.09
85094;BME280;75432;49.056;12.004;2024-03-07T11:42:23;96861.78;;;7.10;60.76
85094;BME280;75432;49.056;12.004;2024-03-07T11:44:56;96835.00;;;7.24;60.17
85094;BME280;75432;49.056;12.004;2024-03-07T11:47:25;96782.50;;;7.31;59.36
85094;BME280;75432;49.056;12.004;2024-03-07T11:49:56;96882.88;;;8.33;58.85
85094;BME280;75432;49.056;12.004;2024-03-07T11:52:24;96852.66;;;8.21;58.41
85094;BME280;75432;49.056;12.004;2024-03-07T11:54:50;96795.53;;;7.68;58.63
85094;BME280;75432;49.056;12.004;2024-03-07T11:57:19;96695.19;;;6.85;58.82
85094;BME280;75432;49.056;12.004;2024-03-07T11:59:47;96667.06;;;6.59;58.70
85094;BME280;75432;49.056;12.004;2024-03-07T12:02:19;96733.25;;;7.03;58.76
85094;BME280;75432;49.056;12.004;2024-03-07T12:04:49;96883.81;;;7.90;59.20
85094;BME280;75432;49.056;12.004;2024-03-07T12:07:19;96892.25;;;8.05;59.39
85094;BME280;75432;49.056;12.004;2024-03-07T12:09:49;96856.59;;;7.70;59.56
85094;BME280;75432;49.056;12.004;2024-03-07T12:12:20;96583.97;;;5.84;59.52
85094;BME280;75432;49.056;12.004;2024-03-07T12:14:54;96905.81;;;7.86;59.83
85094;BME280;75432;49.056;12.004;2024-03-07T12:17:21;96833.09;;;7.49;60.31
85094;BME280;75432;49.056;12.004;2024-03-07T12:19:50;96914.91;;;7.96;59.64
85094;BME280;75432;49.056;12.004;2024-03-07T12:22:20;96633.22;;;6.48;59.65
85094;BME280;75432;49.056;12.004;2024-03-07T12:25:01;96818.25;;;7.71;58.50
85094;BME280;75432;49.056;12.004;2024-03-07T12:27:35;96809.34;;;7.77;58.83
85094;BME280;75432;49.056;12.004;2024-03-07T12:30:15;96810.16;;;7.48;57.23
85094;BME280;75432;49.056;12.004;2024-03-07T12:32:52;96791.09;;;7.33;57.88
85094;BME280;75432;49.056;12.004;2024-03-07T12:35:19;96801.00;;;7.26;59.38
85094;BME280;75432;49.056;12.004;2024-03-07T12:37:45;96795.31;;;7.22;60.09
85094;BME280;75432;49.056;12.004;2024-03-07T12:40:12;96836.78;;;7.48;60.12
85094;BME280;75432;49.056;12.004;2024-03-07T12:42:46;96882.94;;;7.78;60.26
85094;BME280;75432;49.056;12.004;2024-03-07T12:45:16;96759.44;;;7.06;60.25
85094;BME280;75432;49.056;12.004;2024-03-07T12:47:51;96870.00;;;7.63;61.01
85094;BME280;75432;49.056;12.004;2024-03-07T12:50:20;96892.25;;;7.69;60.75
85094;BME280;75432;49.056;12.004;2024-03-07T12:52:48;96882.38;;;7.76;61.16
85094;BME280;75432;49.056;12.004;2024-03-07T12:55:19;96758.47;;;7.19;60.71
85094;BME280;75432;49.056;12.004;2024-03-07T12:57:48;96877.38;;;7.98;60.26
85094;BME280;75432;49.056;12.004;2024-03-07T13:00:17;96807.88;;;7.33;60.75
85094;BME280;75432;49.056;12.004;2024-03-07T13:02:47;96883.25;;;7.70;61.13
85094;BME280;75432;49.056;12.004;2024-03-07T13:05:14;96798.31;;;7.07;61.29
85094;BME280;75432;49.056;12.004;2024-03-07T13:07:52;96795.44;;;6.91;60.60
85094;BME280;75432;49.056;12.004;2024-03-07T13:10:19;96871.34;;;7.36;61.37
85094;BME280;75432;49.056;12.004;2024-03-07T13:12:47;96790.69;;;6.75;61.26
85094;BME280;75432;49.056;12.004;2024-03-07T13:15:18;96796.00;;;6.56;61.23
85094;BME280;75432;49.056;12.004;2024-03-07T13:17:48;96614.59;;;5.37;61.79